Time;durP1;ratioP1;P1;durP2;ratioP2;P2;SDS_P1;SDS_P2;PMS_P1;PMS_P2;Temp;Humidity;BMP_temperature;BMP_pressure;BME280_temperature;BME280_humidity;BME280_pressure;Samples;Min_cycle;Max_cycle;Signal;HPM_P1;HPM_P2
2021/07/17 00:01:36;;;;;;;;;;;;;;;20.38;64.54;102336.75;5015051;28;851;-70
2021/07/17 00:04:01;;;;;;;;;;;;;;;20.32;64.99;102332.66;5015114;28;783;-70
2021/07/17 00:06:27;;;;;;;;;;;;;;;20.35;64.96;102332.41;5014821;28;1009;-72
2021/07/17 00:08:52;;;;;;;;;;;;;;;20.37;65.36;102329.63;5008845;28;1916;-71
2021/07/17 00:11:17;;;;;;;;;;;;;;;20.33;64.67;102328.09;4995076;28;1973;-71
2021/07/17 00:13:42;;;;;;;;;;;;;;;20.35;64.66;102337.81;4995440;28;779;-71
2021/07/17 00:16:08;;;;;;;;;;;;;;;20.38;64.51;102336.75;4995255;28;1018;-70
2021/07/17 00:18:33;;;;;;;;;;;;;;;20.35;64.92;102337.81;5011669;28;1974;-71
2021/07/17 00:20:58;;;;;;;;;;;;;;;20.37;65.46;102340.44;5014761;28;1044;-71
2021/07/17 00:23:23;;;;;;;;;;;;;;;20.33;65.25;102339.78;5029975;28;910;-72
2021/07/17 00:25:52;;;;;;;;;;;;;;;20.30;65.49;102336.47;5015168;28;843;-70
2021/07/17 00:28:18;;;;;;;;;;;;;;;20.32;64.68;102335.38;5001291;28;1968;-70
2021/07/17 00:30:43;;;;;;;;;;;;;;;20.29;65.43;102334.75;4995378;28;1985;-70
2021/07/17 00:33:08;;;;;;;;;;;;;;;20.32;64.68;102329.09;4995164;28;1034;-70
2021/07/17 00:35:34;;;;;;;;;;;;;;;20.25;65.79;102333.28;4994955;28;800;-72
2021/07/17 00:37:59;;;;;;;;;;;;;;;20.21;65.76;102332.69;4995339;28;918;-71
2021/07/17 00:40:24;;;;;;;;;;;;;;;20.26;64.91;102335.00;5007743;28;1798;-71
2021/07/17 00:42:50;;;;;;;;;;;;;;;20.27;65.26;102334.00;5014431;28;1947;-71
2021/07/17 00:45:15;;;;;;;;;;;;;;;20.23;64.71;102333.44;5015211;28;1000;-71
2021/07/17 00:47:40;;;;;;;;;;;;;;;20.13;65.59;102329.75;5014287;28;1371;-71
2021/07/17 00:50:05;;;;;;;;;;;;;;;20.18;65.60;102335.66;5014154;28;1368;-72
2021/07/17 00:52:30;;;;;;;;;;;;;;;20.21;65.55;102329.13;5013323;28;1965;-71
2021/07/17 00:54:55;;;;;;;;;;;;;;;20.27;65.11;102336.72;5013795;28;1488;-71
2021/07/17 00:57:20;;;;;;;;;;;;;;;20.29;65.21;102326.63;5014066;28;1367;-71
2021/07/17 00:59:45;;;;;;;;;;;;;;;20.30;64.73;102334.63;5014645;28;1406;-72
2021/07/17 01:02:11;;;;;;;;;;;;;;;20.30;65.23;102334.63;5017876;28;1367;-71
2021/07/17 01:04:36;;;;;;;;;;;;;;;20.30;64.59;102331.91;5017180;28;1518;-71
2021/07/17 01:07:01;;;;;;;;;;;;;;;20.32;64.73;102335.38;5017241;28;1236;-72
2021/07/17 01:09:26;;;;;;;;;;;;;;;20.28;64.65;102331.19;5017397;28;1413;-72
2021/07/17 01:11:51;;;;;;;;;;;;;;;20.30;64.97;102334.63;5017381;28;1922;-72
2021/07/17 01:14:16;;;;;;;;;;;;;;;20.31;64.67;102332.78;5017569;28;1296;-72
2021/07/17 01:16:41;;;;;;;;;;;;;;;20.31;65.27;102330.06;5016852;28;1615;-72
2021/07/17 01:19:06;;;;;;;;;;;;;;;20.29;64.88;102326.63;5014851;28;1350;-72
2021/07/17 01:21:31;;;;;;;;;;;;;;;20.28;64.75;102328.47;5015927;28;1481;-71
2021/07/17 01:23:57;;;;;;;;;;;;;;;20.29;65.30;102324.78;5017091;28;1414;-71
2021/07/17 01:26:22;;;;;;;;;;;;;;;20.29;65.02;102329.34;5017047;28;1371;-72
2021/07/17 01:28:47;;;;;;;;;;;;;;;20.30;64.89;102321.09;5016660;28;1586;-72
2021/07/17 01:31:12;;;;;;;;;;;;;;;20.20;65.44;102322.84;5017244;28;1957;-71
2021/07/17 01:33:39;;;;;;;;;;;;;;;20.24;65.48;102323.47;5017188;28;1362;-72
2021/07/17 01:36:04;;;;;;;;;;;;;;;20.26;65.12;102316.91;5017076;28;1354;-71
2021/07/17 01:38:29;;;;;;;;;;;;;;;20.27;65.29;102321.34;5032141;28;1624;-71
2021/07/17 01:40:54;;;;;;;;;;;;;;;20.28;64.84;102324.91;5016968;28;2007;-71
2021/07/17 01:43:19;;;;;;;;;;;;;;;20.29;65.63;102332.91;5016454;28;1617;-72
2021/07/17 01:45:47;;;;;;;;;;;;;;;20.29;65.58;102322.06;5016910;28;1752;-72
2021/07/17 01:48:12;;;;;;;;;;;;;;;20.29;65.13;102321.22;5017007;28;1611;-72
2021/07/17 01:50:37;;;;;;;;;;;;;;;20.28;65.35;102314.94;5047903;28;1951;-73
2021/07/17 01:53:02;;;;;;;;;;;;;;;20.28;65.35;102317.66;5014278;28;1680;-71
2021/07/17 01:55:27;;;;;;;;;;;;;;;20.28;65.09;102320.34;5016563;28;1465;-70
2021/07/17 01:57:53;;;;;;;;;;;;;;;20.29;65.82;102322.06;5016754;28;1268;-71
2021/07/17 02:00:18;;;;;;;;;;;;;;;20.28;64.95;102309.53;5016462;28;1359;-71
2021/07/17 02:02:43;;;;;;;;;;;;;;;20.28;65.36;102317.66;5016261;28;1419;-71
2021/07/17 02:05:08;;;;;;;;;;;;;;;20.29;65.35;102321.22;5016666;28;1280;-70
2021/07/17 02:07:33;;;;;;;;;;;;;;;20.27;65.07;102313.22;5016612;28;1320;-71
2021/07/17 02:09:58;;;;;;;;;;;;;;;20.27;65.11;102315.94;5016424;28;1422;-71
2021/07/17 02:12:23;;;;;;;;;;;;;;;20.27;65.05;102315.94;5016005;28;1919;-71
2021/07/17 02:14:49;;;;;;;;;;;;;;;20.27;65.09;102304.22;5016089;28;1795;-71
2021/07/17 02:17:14;;;;;;;;;;;;;;;20.27;65.47;102310.50;5031343;28;1548;-71
2021/07/17 02:19:39;;;;;;;;;;;;;;;20.28;65.43;102308.66;5016246;28;1351;-71
2021/07/17 02:22:04;;;;;;;;;;;;;;;20.26;65.41;102311.50;5016227;28;1264;-71
2021/07/17 02:24:29;;;;;;;;;;;;;;;20.26;64.94;102300.66;5016559;28;1411;-71
2021/07/17 02:26:54;;;;;;;;;;;;;;;20.26;65.68;102310.63;5040626;28;1892;-71
2021/07/17 02:29:19;;;;;;;;;;;;;;;20.25;64.93;102315.19;4996973;28;1264;-70
2021/07/17 02:31:44;;;;;;;;;;;;;;;20.25;65.22;102304.34;4997014;28;1898;-71
2021/07/17 02:34:10;;;;;;;;;;;;;;;20.24;65.26;102308.09;4997031;28;902;-72
2021/07/17 02:36:35;;;;;;;;;;;;;;;20.24;65.62;102308.09;4996813;28;867;-73
2021/07/17 02:39:00;;;;;;;;;;;;;;;20.25;65.39;102319.75;5006414;28;1911;-73
2021/07/17 02:41:25;;;;;;;;;;;;;;;20.24;65.60;102308.09;5016240;28;1366;-73
2021/07/17 02:43:50;;;;;;;;;;;;;;;20.25;65.68;102309.78;5031577;28;1438;-72
2021/07/17 02:46:15;;;;;;;;;;;;;;;20.24;65.06;102308.09;5016256;28;890;-73
2021/07/17 02:48:40;;;;;;;;;;;;;;;20.24;65.54;102308.09;5016301;28;883;-72
2021/07/17 02:51:05;;;;;;;;;;;;;;;20.24;65.15;102308.09;5006883;28;1875;-73
2021/07/17 02:53:30;;;;;;;;;;;;;;;20.24;65.69;102312.63;4996430;28;859;-72
2021/07/17 02:55:55;;;;;;;;;;;;;;;20.24;64.87;102315.34;5027851;28;1634;-72
2021/07/17 02:58:20;;;;;;;;;;;;;;;20.23;64.80;102322.59;5028375;28;1740;-72
2021/07/17 03:00:47;;;;;;;;;;;;;;;20.23;65.44;102316.31;4996384;28;993;-71
2021/07/17 03:03:12;;;;;;;;;;;;;;;20.23;65.03;102310.91;5006807;28;1867;-72
2021/07/17 03:05:37;;;;;;;;;;;;;;;20.22;65.24;102315.47;5030940;28;1929;-71
2021/07/17 03:08:04;;;;;;;;;;;;;;;20.22;65.50;102315.47;5016283;28;930;-71
2021/07/17 03:10:29;;;;;;;;;;;;;;;20.21;65.38;102313.75;5030965;28;1929;-71
2021/07/17 03:12:54;;;;;;;;;;;;;;;20.20;65.55;102306.59;5015605;28;1087;-71
2021/07/17 03:15:19;;;;;;;;;;;;;;;20.20;65.26;102313.88;5006044;28;1826;-70
2021/07/17 03:17:44;;;;;;;;;;;;;;;20.19;65.95;102309.44;4996224;28;886;-71
2021/07/17 03:20:09;;;;;;;;;;;;;;;20.18;65.53;102313.13;4996086;28;819;-71
2021/07/17 03:22:34;;;;;;;;;;;;;;;20.18;65.33;102318.53;4995314;28;997;-71
2021/07/17 03:25:00;;;;;;;;;;;;;;;20.17;65.20;102323.09;4996071;28;1062;-71
2021/07/17 03:27:25;;;;;;;;;;;;;;;20.17;65.59;102316.81;5007941;28;2221;-72
2021/07/17 03:29:50;;;;;;;;;;;;;;;20.14;65.67;102317.94;5015776;28;877;-72
2021/07/17 03:32:15;;;;;;;;;;;;;;;20.14;65.82;102312.50;5015450;28;1961;-71
2021/07/17 03:34:40;;;;;;;;;;;;;;;20.13;65.45;102310.78;5013833;28;1667;-72
2021/07/17 03:37:05;;;;;;;;;;;;;;;20.13;65.03;102316.22;5015109;28;1807;-72
2021/07/17 03:39:30;;;;;;;;;;;;;;;20.13;65.52;102310.78;5015383;28;796;-72
2021/07/17 03:41:55;;;;;;;;;;;;;;;20.12;64.81;102311.78;5015463;28;1006;-72
2021/07/17 03:44:24;;;;;;;;;;;;;;;20.11;65.14;102312.75;5015397;28;1006;-72
2021/07/17 03:46:49;;;;;;;;;;;;;;;20.11;65.11;102310.06;4996386;28;1944;-72
2021/07/17 03:49:14;;;;;;;;;;;;;;;20.11;65.13;102312.75;4995679;28;958;-71
2021/07/17 03:51:39;;;;;;;;;;;;;;;20.11;65.55;102315.47;4995415;28;1949;-71
2021/07/17 03:54:04;;;;;;;;;;;;;;;20.13;64.88;102316.22;4995292;28;1191;-71
2021/07/17 03:56:29;;;;;;;;;;;;;;;20.11;65.36;102318.16;5027192;28;981;-71
2021/07/17 03:58:54;;;;;;;;;;;;;;;20.11;65.03;102312.75;5014269;28;1740;-71
2021/07/17 04:01:19;;;;;;;;;;;;;;;20.14;64.71;102311.66;5014968;28;1038;-71
2021/07/17 04:03:50;;;;;;;;;;;;;;;20.13;65.10;102313.50;5015111;28;1068;-71
2021/07/17 04:06:15;;;;;;;;;;;;;;;20.13;65.14;102312.63;5005114;28;1826;-71
2021/07/17 04:08:40;;;;;;;;;;;;;;;20.12;65.30;102311.78;5009314;28;1976;-72
2021/07/17 04:11:06;;;;;;;;;;;;;;;20.12;65.86;102314.47;5015049;28;1922;-71
2021/07/17 04:13:31;;;;;;;;;;;;;;;20.13;65.58;102318.91;5014896;28;909;-71
2021/07/17 04:15:56;;;;;;;;;;;;;;;20.13;65.18;102321.63;5007666;28;1905;-72
2021/07/17 04:18:21;;;;;;;;;;;;;;;20.14;65.28;102323.34;5026940;28;1409;-72
2021/07/17 04:20:46;;;;;;;;;;;;;;;20.15;64.75;102324.19;4995584;28;1065;-72
2021/07/17 04:23:11;;;;;;;;;;;;;;;20.15;65.49;102325.06;4995426;28;1033;-72
2021/07/17 04:25:36;;;;;;;;;;;;;;;20.14;65.60;102317.94;4995118;28;831;-71
2021/07/17 04:28:01;;;;;;;;;;;;;;;20.13;65.29;102327.03;5001620;28;1871;-72
2021/07/17 04:30:26;;;;;;;;;;;;;;;20.12;65.79;102325.31;5014990;28;1951;-72
2021/07/17 04:32:51;;;;;;;;;;;;;;;20.11;65.83;102327.16;5014821;28;847;-72
2021/07/17 04:35:16;;;;;;;;;;;;;;;20.13;65.80;102326.16;5018062;28;827;-72
2021/07/17 04:37:42;;;;;;;;;;;;;;;20.14;65.00;102331.47;5018787;28;819;-72
2021/07/17 04:40:07;;;;;;;;;;;;;;;20.14;65.45;102334.16;5029892;28;1703;-72
2021/07/17 04:42:32;;;;;;;;;;;;;;;20.14;65.97;102328.75;5018070;28;1952;-72
2021/07/17 04:44:57;;;;;;;;;;;;;;;20.17;65.38;102333.06;5018735;28;981;-71
2021/07/17 04:47:22;;;;;;;;;;;;;;;20.16;65.88;102334.91;5018664;28;993;-71
2021/07/17 04:49:47;;;;;;;;;;;;;;;20.17;66.03;102333.94;5033849;28;938;-71
2021/07/17 04:52:12;;;;;;;;;;;;;;;20.18;65.78;102338.34;5007947;28;1920;-71
2021/07/17 04:54:37;;;;;;;;;;;;;;;20.19;65.74;102334.66;4998764;28;1080;-71
2021/07/17 04:57:02;;;;;;;;;;;;;;;20.22;66.52;102336.25;4998877;28;1013;-71
2021/07/17 04:59:27;;;;;;;;;;;;;;;20.22;65.78;102337.13;5030251;28;965;-71
2021/07/17 05:01:52;;;;;;;;;;;;;;;20.22;66.63;102341.69;4999852;28;2052;-71
2021/07/17 05:04:17;;;;;;;;;;;;;;;20.22;66.17;102328.16;4998563;28;891;-73
2021/07/17 05:06:43;;;;;;;;;;;;;;;20.24;66.97;102337.88;4998675;28;1013;-72
2021/07/17 05:09:08;;;;;;;;;;;;;;;20.24;66.11;102335.16;4998502;28;910;-72
2021/07/17 05:11:34;;;;;;;;;;;;;;;20.24;66.90;102345.13;5012183;28;2319;-71
2021/07/17 05:13:59;;;;;;;;;;;;;;;20.24;66.52;102335.16;5017800;28;1983;-71
2021/07/17 05:16:24;;;;;;;;;;;;;;;20.25;66.44;102344.97;5018155;28;938;-73
2021/07/17 05:18:49;;;;;;;;;;;;;;;20.25;67.08;102342.25;5017815;28;898;-71
2021/07/17 05:21:16;;;;;;;;;;;;;;;20.27;66.70;102340.28;5018227;28;993;-71
2021/07/17 05:23:41;;;;;;;;;;;;;;;20.26;66.91;102338.56;5003561;28;1984;-71
2021/07/17 05:26:06;;;;;;;;;;;;;;;20.27;66.61;102342.13;4998426;28;1076;-71
2021/07/17 05:28:31;;;;;;;;;;;;;;;20.26;66.98;102343.97;4998694;28;993;-71
2021/07/17 05:30:56;;;;;;;;;;;;;;;20.27;66.77;102340.28;4998185;28;1894;-71
2021/07/17 05:33:21;;;;;;;;;;;;;;;20.30;66.66;102345.47;4998624;28;1013;-71
2021/07/17 05:35:46;;;;;;;;;;;;;;;20.33;67.25;102347.06;5042198;28;2046;-71
2021/07/17 05:38:11;;;;;;;;;;;;;;;20.35;67.85;102345.09;5018040;28;2087;-70
2021/07/17 05:40:36;;;;;;;;;;;;;;;20.35;67.88;102345.94;5018287;28;843;-70
2021/07/17 05:43:01;;;;;;;;;;;;;;;20.35;67.04;102351.38;5017968;28;848;-72
2021/07/17 05:45:26;;;;;;;;;;;;;;;20.38;67.41;102351.16;5014180;28;1984;-72
2021/07/17 05:47:51;;;;;;;;;;;;;;;20.39;67.02;102352.88;5032819;28;2036;-72
2021/07/17 05:50:17;;;;;;;;;;;;;;;20.43;67.20;102358.88;5006101;28;2341;-72
2021/07/17 05:52:42;;;;;;;;;;;;;;;20.47;67.92;102362.19;5016378;28;1953;-72
2021/07/17 05:55:07;;;;;;;;;;;;;;;20.44;67.61;102353.34;5014886;28;1496;-73
2021/07/17 05:57:32;;;;;;;;;;;;;;;20.44;67.15;102366.00;5014714;28;1276;-73
2021/07/17 05:59:57;;;;;;;;;;;;;;;20.47;67.61;102363.06;5016648;28;1261;-72
2021/07/17 06:02:22;;;;;;;;;;;;;;;20.55;68.29;102367.84;5016863;28;1167;-70
2021/07/17 06:04:47;;;;;;;;;;;;;;;20.61;69.64;102370.88;5016619;28;1462;-69
2021/07/17 06:07:12;;;;;;;;;;;;;;;20.65;70.62;102368.78;5016262;28;1568;-69
2021/07/17 06:09:40;;;;;;;;;;;;;;;20.66;70.42;102374.09;5016729;28;2025;-68
2021/07/17 06:12:05;;;;;;;;;;;;;;;20.66;69.44;102367.81;5016615;28;1962;-69
2021/07/17 06:14:31;;;;;;;;;;;;;;;20.66;70.53;102365.97;5015268;28;1983;-69
2021/07/17 06:16:56;;;;;;;;;;;;;;;20.66;69.44;102376.78;5014366;28;2064;-69
2021/07/17 06:19:21;;;;;;;;;;;;;;;20.68;69.87;102373.97;5006492;28;2077;-69
2021/07/17 06:21:46;;;;;;;;;;;;;;;20.66;69.89;102379.50;5049326;28;1827;-69
2021/07/17 06:24:11;;;;;;;;;;;;;;;20.68;68.78;102374.81;5016761;28;2174;-69
2021/07/17 06:26:36;;;;;;;;;;;;;;;20.68;68.76;102380.25;5010824;28;2044;-69
2021/07/17 06:29:01;;;;;;;;;;;;;;;20.70;69.28;102380.13;5017020;28;2088;-69
2021/07/17 06:31:26;;;;;;;;;;;;;;;20.71;68.50;102385.41;5015902;28;1886;-69
2021/07/17 06:33:51;;;;;;;;;;;;;;;20.71;68.82;102384.53;5013635;28;2115;-71
2021/07/17 06:36:16;;;;;;;;;;;;;;;20.73;68.36;102390.69;5015441;28;2047;-68
2021/07/17 06:38:43;;;;;;;;;;;;;;;20.75;68.89;102383.31;5015928;28;1692;-68
2021/07/17 06:41:08;;;;;;;;;;;;;;;20.76;68.64;102385.91;5016643;28;1586;-67
2021/07/17 06:43:33;;;;;;;;;;;;;;;20.76;68.84;102385.91;5016416;28;1566;-67
2021/07/17 06:45:58;;;;;;;;;;;;;;;20.77;68.84;102389.47;5015584;28;1464;-68
2021/07/17 06:48:23;;;;;;;;;;;;;;;20.78;68.31;102396.59;5030759;28;1633;-68
2021/07/17 06:50:48;;;;;;;;;;;;;;;20.80;68.24;102397.31;5011287;28;1961;-68
2021/07/17 06:53:13;;;;;;;;;;;;;;;20.83;68.00;102407.03;5006355;28;1189;-68
2021/07/17 06:55:39;;;;;;;;;;;;;;;20.83;68.44;102407.91;5016310;28;1535;-68
2021/07/17 06:58:04;;;;;;;;;;;;;;;20.83;68.80;102407.03;5014346;28;1670;-68
2021/07/17 07:00:31;;;;;;;;;;;;;;;20.81;68.37;102407.16;5016106;28;2067;-68
2021/07/17 07:02:56;;;;;;;;;;;;;;;20.84;67.86;102404.19;5016203;28;1973;-68
2021/07/17 07:05:21;;;;;;;;;;;;;;;20.79;67.93;102404.56;5016505;28;1940;-68
2021/07/17 07:07:47;;;;;;;;;;;;;;;20.80;67.15;102409.00;5006648;28;2046;-68
2021/07/17 07:10:12;;;;;;;;;;;;;;;20.84;67.40;102411.47;5013514;28;1876;-68
2021/07/17 07:12:37;;;;;;;;;;;;;;;20.86;67.84;102414.91;5015604;28;1963;-68
2021/07/17 07:15:02;;;;;;;;;;;;;;;20.87;67.59;102414.78;5015423;28;1273;-68
2021/07/17 07:17:27;;;;;;;;;;;;;;;20.89;67.38;102417.38;5008873;28;1554;-68
2021/07/17 07:19:52;;;;;;;;;;;;;;;20.91;67.09;102415.41;5009071;28;1597;-68
2021/07/17 07:22:17;;;;;;;;;;;;;;;20.92;67.41;102420.69;5015801;28;1823;-68
2021/07/17 07:24:42;;;;;;;;;;;;;;;20.89;68.16;102433.63;5015574;28;1813;-67
2021/07/17 07:27:07;;;;;;;;;;;;;;;20.88;67.76;102426.50;5015926;28;2000;-68
2021/07/17 07:29:32;;;;;;;;;;;;;;;20.88;67.55;102432.78;5045607;28;1789;-68
2021/07/17 07:31:59;;;;;;;;;;;;;;;20.86;66.37;102429.31;5014835;28;1902;-68
2021/07/17 07:34:24;;;;;;;;;;;;;;;20.90;66.97;102433.50;5015114;28;1644;-67
2021/07/17 07:36:49;;;;;;;;;;;;;;;20.91;66.99;102435.22;5014929;28;1593;-67
2021/07/17 07:39:14;;;;;;;;;;;;;;;20.92;66.64;102428.81;5015620;28;1900;-67
2021/07/17 07:41:39;;;;;;;;;;;;;;;20.95;67.40;102430.44;5014596;28;1652;-67
2021/07/17 07:44:04;;;;;;;;;;;;;;;20.95;67.09;102434.00;5015228;28;1571;-67
2021/07/17 07:46:32;;;;;;;;;;;;;;;20.95;66.84;102434.00;5014944;28;1659;-67
2021/07/17 07:48:57;;;;;;;;;;;;;;;20.96;66.61;102435.69;5014827;28;1678;-67
2021/07/17 07:51:23;;;;;;;;;;;;;;;20.95;66.56;102436.72;5004654;28;1941;-67
2021/07/17 07:53:48;;;;;;;;;;;;;;;20.97;66.88;102425.72;5015352;28;1663;-68
2021/07/17 07:56:13;;;;;;;;;;;;;;;20.93;66.71;102430.56;5015386;28;1899;-66
2021/07/17 07:58:38;;;;;;;;;;;;;;;20.93;67.12;102429.69;5015422;28;1512;-67
2021/07/17 08:01:03;;;;;;;;;;;;;;;20.93;67.39;102430.56;5014273;28;1745;-67
2021/07/17 08:03:28;;;;;;;;;;;;;;;20.96;67.02;102424.00;5014399;28;1812;-67
2021/07/17 08:05:53;;;;;;;;;;;;;;;20.98;66.93;102428.28;5014654;28;1559;-67
2021/07/17 08:08:18;;;;;;;;;;;;;;;21.02;66.62;102431.63;5014903;28;1919;-67
2021/07/17 08:10:43;;;;;;;;;;;;;;;21.04;66.61;102435.06;5014892;28;1957;-67
2021/07/17 08:13:08;;;;;;;;;;;;;;;21.03;66.17;102430.63;5012778;28;1804;-67
2021/07/17 08:15:33;;;;;;;;;;;;;;;21.06;66.20;102431.22;5014068;28;1308;-67
2021/07/17 08:17:58;;;;;;;;;;;;;;;21.06;66.55;102431.22;5014005;28;1406;-67
2021/07/17 08:20:23;;;;;;;;;;;;;;;21.07;65.59;102432.97;5045077;28;1964;-67
2021/07/17 08:22:49;;;;;;;;;;;;;;;21.11;65.15;102433.56;5013996;28;1493;-67
2021/07/17 08:25:14;;;;;;;;;;;;;;;21.06;64.68;102439.38;5014916;28;1843;-67
2021/07/17 08:27:39;;;;;;;;;;;;;;;21.09;64.56;102446.38;5014979;28;1849;-70
2021/07/17 08:30:04;;;;;;;;;;;;;;;21.10;64.11;102445.41;5022677;28;1908;-70
2021/07/17 08:32:29;;;;;;;;;;;;;;;21.09;63.82;102449.97;5015168;28;2045;-70
2021/07/17 08:34:54;;;;;;;;;;;;;;;21.09;63.87;102447.25;5014751;28;1840;-69
2021/07/17 08:37:19;;;;;;;;;;;;;;;21.10;63.61;102443.53;5014973;28;1891;-69
2021/07/17 08:39:44;;;;;;;;;;;;;;;21.11;63.62;102442.56;5004894;28;2180;-69
2021/07/17 08:42:09;;;;;;;;;;;;;;;21.09;63.45;102443.66;5014122;28;1611;-69
2021/07/17 08:44:34;;;;;;;;;;;;;;;21.09;64.28;102441.81;5014730;28;1882;-69
2021/07/17 08:47:00;;;;;;;;;;;;;;;21.10;64.02;102448.97;5014189;28;1772;-69
2021/07/17 08:49:25;;;;;;;;;;;;;;;21.11;64.07;102453.41;5013071;28;1486;-70
2021/07/17 08:51:50;;;;;;;;;;;;;;;21.12;64.15;102454.25;5014196;28;1898;-67
2021/07/17 08:54:15;;;;;;;;;;;;;;;21.12;63.26;102449.69;5013833;28;1742;-66
2021/07/17 08:56:40;;;;;;;;;;;;;;;21.16;63.93;102453.00;5013129;28;1758;-67
2021/07/17 08:59:06;;;;;;;;;;;;;;;21.14;63.54;102453.13;5014207;28;1253;-68
2021/07/17 09:01:31;;;;;;;;;;;;;;;21.10;64.29;102457.09;5029827;28;847;-67
2021/07/17 09:03:56;;;;;;;;;;;;;;;21.09;64.15;102449.09;5029795;28;1216;-67
2021/07/17 09:06:21;;;;;;;;;;;;;;;21.09;64.44;102447.25;5029527;28;1905;-67
2021/07/17 09:08:48;;;;;;;;;;;;;;;21.10;64.60;102445.41;5014476;28;1021;-67
2021/07/17 09:11:13;;;;;;;;;;;;;;;21.10;64.61;102448.09;5014606;28;1973;-67
2021/07/17 09:13:38;;;;;;;;;;;;;;;21.09;65.15;102444.53;5029577;28;922;-67
2021/07/17 09:16:03;;;;;;;;;;;;;;;21.10;65.41;102443.53;5010805;28;1909;-68
2021/07/17 09:18:28;;;;;;;;;;;;;;;21.11;65.12;102447.97;4995289;28;861;-68
2021/07/17 09:20:53;;;;;;;;;;;;;;;21.11;64.88;102450.69;4995835;28;827;-67
2021/07/17 09:23:18;;;;;;;;;;;;;;;21.13;64.89;102447.84;4998500;28;847;-68
2021/07/17 09:25:43;;;;;;;;;;;;;;;21.13;65.41;102450.56;4998613;28;1710;-67
2021/07/17 09:28:08;;;;;;;;;;;;;;;21.14;65.24;102449.53;5017540;28;1858;-68
2021/07/17 09:30:34;;;;;;;;;;;;;;;21.15;65.46;102445.84;5017758;28;1948;-68
2021/07/17 09:32:59;;;;;;;;;;;;;;;21.14;65.14;102439.56;5017720;28;911;-68
2021/07/17 09:35:24;;;;;;;;;;;;;;;21.15;64.89;102435.00;5017174;28;1870;-68
2021/07/17 09:37:49;;;;;;;;;;;;;;;21.15;65.71;102441.28;5029709;28;1501;-68
2021/07/17 09:40:14;;;;;;;;;;;;;;;21.17;65.34;102424.03;4998046;28;1033;-68
2021/07/17 09:42:39;;;;;;;;;;;;;;;21.17;65.12;102430.31;4998120;28;950;-67
2021/07/17 09:45:04;;;;;;;;;;;;;;;21.18;65.38;102423.03;4998199;28;816;-68
2021/07/17 09:47:29;;;;;;;;;;;;;;;21.18;65.38;102426.63;5046505;28;1912;-67
2021/07/17 09:49:54;;;;;;;;;;;;;;;21.19;65.28;102428.34;5017334;28;954;-68
2021/07/17 09:52:23;;;;;;;;;;;;;;;21.21;65.54;102433.66;5017195;28;1957;-68
2021/07/17 09:54:48;;;;;;;;;;;;;;;21.21;65.54;102429.09;5017253;28;1185;-68
2021/07/17 09:57:13;;;;;;;;;;;;;;;21.22;65.95;102435.38;5016978;28;1938;-68
2021/07/17 09:59:38;;;;;;;;;;;;;;;21.22;65.91;102428.13;4996344;28;841;-67
2021/07/17 10:02:03;;;;;;;;;;;;;;;21.23;66.08;102437.09;4997575;28;855;-67
2021/07/17 10:04:28;;;;;;;;;;;;;;;21.23;65.75;102432.56;4997524;28;792;-68
2021/07/17 10:06:59;;;;;;;;;;;;;;;21.24;65.63;102433.41;4997945;28;820;-67
2021/07/17 10:09:24;;;;;;;;;;;;;;;21.24;65.47;102428.00;4998869;28;1850;-67
2021/07/17 10:11:49;;;;;;;;;;;;;;;21.25;65.67;102430.56;5031894;28;2082;-67
2021/07/17 10:14:14;;;;;;;;;;;;;;;21.26;65.59;102431.44;5017051;28;1085;-67
2021/07/17 10:16:39;;;;;;;;;;;;;;;21.27;65.77;102425.88;5016844;28;1009;-68
2021/07/17 10:19:04;;;;;;;;;;;;;;;21.27;66.04;102433.16;5004895;28;1917;-68
2021/07/17 10:21:30;;;;;;;;;;;;;;;21.28;65.87;102441.16;4997228;28;891;-68
2021/07/17 10:23:55;;;;;;;;;;;;;;;21.30;65.72;102432.91;4997440;28;867;-68
2021/07/17 10:26:20;;;;;;;;;;;;;;;21.29;65.69;102428.47;4997459;28;1073;-68
2021/07/17 10:28:45;;;;;;;;;;;;;;;21.31;65.61;102429.19;5005842;28;1928;-68
2021/07/17 10:31:10;;;;;;;;;;;;;;;21.31;65.55;102429.19;5016511;28;1898;-67
2021/07/17 10:33:35;;;;;;;;;;;;;;;21.31;66.01;102430.06;5016374;28;918;-67
2021/07/17 10:36:00;;;;;;;;;;;;;;;21.33;66.16;102432.59;5016442;28;1021;-68
2021/07/17 10:38:25;;;;;;;;;;;;;;;21.34;65.95;102439.75;5031710;28;1269;-67
2021/07/17 10:40:50;;;;;;;;;;;;;;;21.33;65.62;102438.91;5007875;28;1999;-68
2021/07/17 10:43:15;;;;;;;;;;;;;;;21.34;65.71;102429.78;5028455;28;1700;-67
2021/07/17 10:45:42;;;;;;;;;;;;;;;21.36;65.76;102437.78;4997070;28;1021;-67
2021/07/17 10:48:07;;;;;;;;;;;;;;;21.36;66.02;102427.78;4996870;28;756;-67
2021/07/17 10:50:36;;;;;;;;;;;;;;;21.37;65.89;102434.94;4997119;28;1033;-67
2021/07/17 10:53:01;;;;;;;;;;;;;;;21.37;65.60;102428.66;5007829;28;1849;-67
2021/07/17 10:55:26;;;;;;;;;;;;;;;21.39;65.46;102427.53;5016925;28;1200;-67
2021/07/17 10:57:51;;;;;;;;;;;;;;;21.40;65.67;102426.53;5016362;28;764;-67
2021/07/17 11:00:16;;;;;;;;;;;;;;;21.40;66.22;102423.84;5029300;28;1927;-68
2021/07/17 11:02:41;;;;;;;;;;;;;;;21.42;65.85;102431.84;4996949;28;1017;-68
2021/07/17 11:05:06;;;;;;;;;;;;;;;21.42;66.04;102434.56;5027863;28;1216;-68
2021/07/17 11:07:33;;;;;;;;;;;;;;;21.43;65.56;102431.72;4996318;28;828;-68
2021/07/17 11:09:58;;;;;;;;;;;;;;;21.44;65.97;102425.28;4996634;28;760;-68
2021/07/17 11:12:25;;;;;;;;;;;;;;;21.45;65.99;102423.44;5014660;28;1906;-68
2021/07/17 11:14:50;;;;;;;;;;;;;;;21.46;65.98;102427.88;5016123;28;839;-68
2021/07/17 11:17:15;;;;;;;;;;;;;;;21.47;66.21;102424.19;5015951;28;1077;-67
2021/07/17 11:19:41;;;;;;;;;;;;;;;21.47;65.80;102429.59;5015666;28;1058;-68
2021/07/17 11:22:06;;;;;;;;;;;;;;;21.48;65.61;102431.31;5015678;28;827;-68
2021/07/17 11:24:31;;;;;;;;;;;;;;;21.48;65.66;102423.19;4997467;28;2026;-68
2021/07/17 11:26:56;;;;;;;;;;;;;;;21.49;65.54;102427.63;4995948;28;989;-68
2021/07/17 11:29:21;;;;;;;;;;;;;;;21.49;65.67;102422.19;4995946;28;919;-68
2021/07/17 11:31:47;;;;;;;;;;;;;;;21.50;66.21;102418.47;4997319;28;1933;-68
2021/07/17 11:34:19;;;;;;;;;;;;;;;21.51;66.08;102430.19;4996150;28;969;-69
2021/07/17 11:36:45;;;;;;;;;;;;;;;21.53;65.54;102425.47;4996203;28;768;-68
2021/07/17 11:39:10;;;;;;;;;;;;;;;21.53;65.93;102430.91;4996382;28;744;-68
2021/07/17 11:41:35;;;;;;;;;;;;;;;21.54;65.46;102432.63;5008124;28;1850;-68
2021/07/17 11:44:00;;;;;;;;;;;;;;;21.54;66.02;102436.19;5030315;28;816;-68
2021/07/17 11:46:25;;;;;;;;;;;;;;;21.55;66.02;102437.94;5015199;28;1001;-68
2021/07/17 11:48:50;;;;;;;;;;;;;;;21.56;65.86;102422.50;5015596;28;989;-67
2021/07/17 11:51:15;;;;;;;;;;;;;;;21.57;65.63;102421.53;5001557;28;1972;-68
2021/07/17 11:53:40;;;;;;;;;;;;;;;21.57;65.95;102427.81;4995185;28;1112;-68
2021/07/17 11:56:06;;;;;;;;;;;;;;;21.58;65.89;102437.66;4995651;28;922;-68
2021/07/17 11:58:31;;;;;;;;;;;;;;;21.59;65.88;102428.53;4995431;28;745;-68
2021/07/17 12:00:56;;;;;;;;;;;;;;;21.61;65.88;102420.25;5037501;28;1938;-68
2021/07/17 12:03:21;;;;;;;;;;;;;;;21.62;65.99;102428.28;5015286;28;1032;-68
2021/07/17 12:05:46;;;;;;;;;;;;;;;21.62;66.04;102422.84;5015074;28;1006;-68
2021/07/17 12:08:11;;;;;;;;;;;;;;;21.63;66.19;102413.72;5015525;28;958;-68
2021/07/17 12:10:36;;;;;;;;;;;;;;;21.64;65.93;102420.88;5015084;28;812;-68
2021/07/17 12:13:03;;;;;;;;;;;;;;;21.64;65.60;102414.59;5019606;28;1902;-69
2021/07/17 12:15:30;;;;;;;;;;;;;;;21.66;65.96;102415.31;5014958;28;847;-69
2021/07/17 12:17:55;;;;;;;;;;;;;;;21.66;66.05;102413.47;5015224;28;779;-69
2021/07/17 12:20:20;;;;;;;;;;;;;;;21.67;65.90;102408.91;5014186;28;1959;-69
2021/07/17 12:22:45;;;;;;;;;;;;;;;21.68;65.67;102411.44;5015079;28;804;-69
2021/07/17 12:25:10;;;;;;;;;;;;;;;21.69;65.83;102401.44;5014946;28;835;-69
2021/07/17 12:27:35;;;;;;;;;;;;;;;21.70;65.95;102409.47;5014933;28;838;-69
2021/07/17 12:30:01;;;;;;;;;;;;;;;21.71;65.94;102405.75;4998941;28;1927;-69
2021/07/17 12:32:26;;;;;;;;;;;;;;;21.71;65.86;102405.75;4995096;28;1907;-69
2021/07/17 12:34:51;;;;;;;;;;;;;;;21.72;66.02;102407.47;4995063;28;808;-69
2021/07/17 12:37:16;;;;;;;;;;;;;;;21.74;66.19;102407.34;4995493;28;862;-69
2021/07/17 12:39:41;;;;;;;;;;;;;;;21.74;65.57;102410.91;4996456;28;1981;-69